createdAt,value
2023-11-18T00:00:01.828Z,1.61
2023-11-18T00:01:01.764Z,1.72
2023-11-18T00:02:01.810Z,2.17
2023-11-18T00:03:01.919Z,1.89
2023-11-18T00:05:01.790Z,1.72
2023-11-18T00:06:01.797Z,2.17
2023-11-18T00:07:01.764Z,2.28
2023-11-18T00:08:01.855Z,1.61
2023-11-18T00:10:01.760Z,2.17
2023-11-18T00:11:01.914Z,2
2023-11-18T00:13:01.768Z,1.89
2023-11-18T00:14:01.915Z,2
2023-11-18T00:16:01.829Z,2.17
2023-11-18T00:17:01.821Z,2
2023-11-18T00:18:01.767Z,1.72
2023-11-18T00:19:01.758Z,2
2023-11-18T00:20:01.816Z,2.17
2023-11-18T00:22:01.763Z,2.17
2023-11-18T00:23:01.756Z,1.89
2023-11-18T00:24:01.828Z,2
2023-11-18T00:25:01.762Z,2
2023-11-18T00:26:01.826Z,1.89
2023-11-18T00:28:01.784Z,2.17
2023-11-18T00:29:01.945Z,2.17
2023-11-18T00:31:01.899Z,2.28
2023-11-18T00:33:01.849Z,2.17
2023-11-18T00:35:01.800Z,2.17
2023-11-18T00:36:01.777Z,1.89
2023-11-18T00:37:01.818Z,2.17
2023-11-18T00:39:01.765Z,1.89
2023-11-18T00:40:01.768Z,1.89
2023-11-18T00:41:01.771Z,2.17
2023-11-18T00:42:01.784Z,1.89
2023-11-18T00:43:01.781Z,1.61
2023-11-18T00:44:01.843Z,1.5
2023-11-18T00:45:01.805Z,1.61
2023-11-18T00:47:01.863Z,1.89
2023-11-18T00:48:01.796Z,1.61
2023-11-18T00:49:01.854Z,1.72
2023-11-18T00:50:01.859Z,2
2023-11-18T00:52:01.779Z,2.17
2023-11-18T00:53:01.818Z,2
2023-11-18T00:54:01.771Z,2
2023-11-18T00:55:01.802Z,1.5
2023-11-18T00:56:01.850Z,1.72
2023-11-18T00:58:01.819Z,2.17
2023-11-18T00:59:01.845Z,2.17
2023-11-18T01:00:01.816Z,1.89
2023-11-18T01:01:01.831Z,1.72
2023-11-18T01:02:01.798Z,1.89
2023-11-18T01:03:01.953Z,2.17
2023-11-18T01:04:01.787Z,2.17
2023-11-18T01:05:01.794Z,2.17
2023-11-18T01:06:01.811Z,2
2023-11-18T01:07:01.781Z,2
2023-11-18T01:08:01.823Z,1.61
2023-11-18T01:09:01.804Z,1.61
2023-11-18T01:11:01.878Z,1.72
2023-11-18T01:13:01.784Z,1.89
2023-11-18T01:14:01.899Z,2
2023-11-18T01:15:01.778Z,2
2023-11-18T01:16:01.786Z,2
2023-11-18T01:17:01.811Z,1.72
2023-11-18T01:18:01.910Z,1.72
2023-11-18T01:19:01.865Z,1.89
2023-11-18T01:20:01.842Z,1.72
2023-11-18T01:21:01.803Z,1.72
2023-11-18T01:22:01.790Z,2
2023-11-18T01:23:01.935Z,2.28
2023-11-18T01:24:01.786Z,2.44
2023-11-18T01:25:01.876Z,2.28
2023-11-18T01:26:01.900Z,2.28
2023-11-18T01:27:01.815Z,2.28
2023-11-18T01:28:01.794Z,1.89
2023-11-18T01:29:01.828Z,2.17
2023-11-18T01:31:01.814Z,2.44
2023-11-18T01:32:01.928Z,2.61
2023-11-18T01:33:01.885Z,2
2023-11-18T01:34:01.862Z,2.44
2023-11-18T01:35:01.861Z,2.44
2023-11-18T01:36:01.825Z,2.61
2023-11-18T01:37:01.819Z,2.44
2023-11-18T01:38:01.826Z,2.17
2023-11-18T01:39:01.839Z,2.17
2023-11-18T01:40:01.822Z,2.17
2023-11-18T01:41:01.915Z,2
2023-11-18T01:42:03.605Z,1.89
2023-11-18T01:43:01.819Z,2.61
2023-11-18T01:44:01.858Z,2.44
2023-11-18T01:45:01.807Z,2.61
2023-11-18T01:46:01.820Z,2.61
2023-11-18T01:47:01.903Z,2.44
2023-11-18T01:48:01.877Z,2.89
2023-11-18T01:49:01.820Z,2.61
2023-11-18T01:50:01.918Z,2.72
2023-11-18T01:51:01.848Z,2.61
2023-11-18T01:53:01.852Z,2.17
2023-11-18T01:54:01.833Z,2.28
2023-11-18T01:56:01.880Z,2.28
2023-11-18T01:58:01.836Z,2.17
2023-11-18T01:59:01.912Z,2.17
2023-11-18T02:01:01.833Z,1.89
2023-11-18T02:02:01.993Z,2
2023-11-18T02:03:01.885Z,2.44
2023-11-18T02:04:02.136Z,2
2023-11-18T02:05:01.850Z,2.44
2023-11-18T02:06:01.880Z,2.44
2023-11-18T02:08:01.883Z,2.28
2023-11-18T02:10:01.853Z,2.44
2023-11-18T02:11:01.831Z,2.28
2023-11-18T02:12:01.855Z,2.28
2023-11-18T02:13:01.831Z,2.44
2023-11-18T02:14:01.842Z,2.28
2023-11-18T02:15:01.980Z,2.61
2023-11-18T02:17:01.874Z,2.72
2023-11-18T02:19:01.831Z,2.61
2023-11-18T02:20:01.833Z,2.61
2023-11-18T02:21:01.861Z,2.61
2023-11-18T02:22:01.838Z,2.61
2023-11-18T02:23:01.893Z,2.17
2023-11-18T02:24:01.830Z,2.28
2023-11-18T02:25:01.871Z,2.61
2023-11-18T02:27:01.831Z,2.61
2023-11-18T02:28:01.871Z,2.61
2023-11-18T02:29:01.928Z,2.44
2023-11-18T02:30:01.828Z,2.61
2023-11-18T02:31:01.830Z,2.61
2023-11-18T02:33:01.880Z,1.89
2023-11-18T02:34:01.849Z,2.17
2023-11-18T02:36:01.856Z,2.28
2023-11-18T02:37:01.915Z,1.89
2023-11-18T02:38:01.918Z,1.72
2023-11-18T02:39:01.866Z,1.72
2023-11-18T02:40:01.868Z,1.89
2023-11-18T02:41:01.872Z,2
2023-11-18T02:42:01.829Z,1.72
2023-11-18T02:43:01.836Z,1.72
2023-11-18T02:44:02.084Z,1.89
2023-11-18T02:46:01.866Z,1.72
2023-11-18T02:47:01.901Z,1.89
2023-11-18T02:48:01.879Z,1.89
2023-11-18T02:49:01.861Z,1.89
2023-11-18T02:50:01.899Z,1.89
2023-11-18T02:51:01.844Z,1.89
2023-11-18T02:52:01.869Z,1.89
2023-11-18T02:53:01.861Z,1.89
2023-11-18T02:54:01.882Z,2.17
2023-11-18T02:55:01.964Z,1.89
2023-11-18T02:56:01.877Z,2.17
2023-11-18T02:59:01.888Z,2
2023-11-18T03:00:01.880Z,2.44
2023-11-18T03:02:01.942Z,2.28
2023-11-18T03:03:01.888Z,2.61
2023-11-18T03:04:01.889Z,2.17
2023-11-18T03:05:01.901Z,2.28
2023-11-18T03:06:01.847Z,2.17
2023-11-18T03:07:01.874Z,1.89
2023-11-18T03:08:01.940Z,2
2023-11-18T03:09:01.855Z,1.89
2023-11-18T03:10:01.899Z,1.72
2023-11-18T03:11:01.920Z,2
2023-11-18T03:12:01.858Z,2
2023-11-18T03:13:01.861Z,2
2023-11-18T03:14:01.925Z,2.17
2023-11-18T03:15:01.864Z,1.72
2023-11-18T03:16:01.918Z,1.89
2023-11-18T03:19:01.876Z,1.89
2023-11-18T03:21:01.906Z,1.89
2023-11-18T03:23:01.875Z,2.17
2023-11-18T03:24:01.871Z,2.17
2023-11-18T03:25:01.880Z,2
2023-11-18T03:26:01.957Z,2.28
2023-11-18T03:28:01.882Z,2.17
2023-11-18T03:29:01.914Z,2.17
2023-11-18T03:31:01.931Z,1.72
2023-11-18T03:32:01.882Z,1.89
2023-11-18T03:33:01.873Z,1.89
2023-11-18T03:34:01.887Z,2
2023-11-18T03:35:02.004Z,1.89
2023-11-18T03:37:01.874Z,2.28
2023-11-18T03:38:01.887Z,2.28
2023-11-18T03:39:01.878Z,2.61
2023-11-18T03:40:01.950Z,1.89
2023-11-18T03:41:01.901Z,2.44
2023-11-18T03:42:01.868Z,2.28
2023-11-18T03:43:01.933Z,2.61
2023-11-18T03:45:01.908Z,2.17
2023-11-18T03:47:01.897Z,1.89
2023-11-18T03:48:01.912Z,2
2023-11-18T03:49:01.860Z,1.89
2023-11-18T03:50:01.898Z,1.72
2023-11-18T03:51:01.881Z,1.72
2023-11-18T03:53:01.918Z,1.89
2023-11-18T03:54:01.878Z,1.72
2023-11-18T03:55:01.867Z,1.72
2023-11-18T03:56:01.902Z,1.61
2023-11-18T03:58:01.878Z,1.72
2023-11-18T03:59:01.944Z,1.72
2023-11-18T04:00:02.033Z,1.61
2023-11-18T04:02:02.018Z,2
2023-11-18T04:03:01.963Z,1.89
2023-11-18T04:04:02.043Z,1.61
2023-11-18T04:05:01.908Z,1.89
2023-11-18T04:06:01.886Z,1.89
2023-11-18T04:07:01.869Z,1.89
2023-11-18T04:08:01.904Z,1.72
2023-11-18T04:09:01.893Z,2.17
2023-11-18T04:10:01.884Z,1.89
2023-11-18T04:12:01.882Z,2
2023-11-18T04:13:01.894Z,1.72
2023-11-18T04:14:01.901Z,1.89
2023-11-18T04:15:01.915Z,1.89
2023-11-18T04:16:01.886Z,1.89
2023-11-18T04:17:01.988Z,1.89
2023-11-18T04:19:01.913Z,1.72
2023-11-18T04:20:01.969Z,1.61
2023-11-18T04:21:01.928Z,1.61
2023-11-18T04:22:01.876Z,1.72
2023-11-18T04:23:01.932Z,1.61
2023-11-18T04:25:01.885Z,1.72
2023-11-18T04:26:01.915Z,1.72
2023-11-18T04:27:01.904Z,1.72
2023-11-18T04:29:01.942Z,1.61
2023-11-18T04:31:01.953Z,2.17
2023-11-18T04:33:01.915Z,2.17
2023-11-18T04:34:01.931Z,2.28
2023-11-18T04:35:01.918Z,2.17
2023-11-18T04:36:01.915Z,2.17
2023-11-18T04:37:01.941Z,2.17
2023-11-18T04:38:01.930Z,2.44
2023-11-18T04:39:01.906Z,2.44
2023-11-18T04:41:01.945Z,2.17
2023-11-18T04:42:01.890Z,1.89
2023-11-18T04:43:01.897Z,2
2023-11-18T04:44:01.943Z,2
2023-11-18T04:45:01.986Z,2.17
2023-11-18T04:46:02.015Z,2
2023-11-18T04:48:02.049Z,2
2023-11-18T04:50:01.932Z,2
2023-11-18T04:51:01.923Z,2
2023-11-18T04:52:01.913Z,1.89
2023-11-18T04:53:01.932Z,2
2023-11-18T04:54:01.926Z,2
2023-11-18T04:55:01.918Z,1.72
2023-11-18T04:56:01.986Z,1.72
2023-11-18T04:58:01.913Z,1.61
2023-11-18T04:59:01.966Z,1.89
2023-11-18T05:01:01.914Z,1.72
2023-11-18T05:02:01.999Z,1.72
2023-11-18T05:03:01.988Z,1.72
2023-11-18T05:04:02.011Z,1.72
2023-11-18T05:05:01.996Z,1.72
2023-11-18T05:06:01.925Z,1.72
2023-11-18T05:07:01.944Z,1.72
2023-11-18T05:09:02.014Z,1.61
2023-11-18T05:10:01.993Z,1.5
2023-11-18T05:11:01.995Z,1.61
2023-11-18T05:12:01.921Z,1.61
2023-11-18T05:13:01.928Z,1.61
2023-11-18T05:14:01.967Z,1.72
2023-11-18T05:15:01.911Z,1.72
2023-11-18T05:16:01.917Z,1.72
2023-11-18T05:17:01.905Z,1.61
2023-11-18T05:18:02.022Z,1.61
2023-11-18T05:19:01.955Z,1.72
2023-11-18T05:20:02.012Z,1.5
2023-11-18T05:21:01.931Z,1.61
2023-11-18T05:22:01.917Z,1.61
2023-11-18T05:23:01.931Z,1.89
2023-11-18T05:25:01.914Z,1.5
2023-11-18T05:26:01.923Z,1.61
2023-11-18T05:27:01.941Z,1.72
2023-11-18T05:28:01.914Z,1.72
2023-11-18T05:29:01.937Z,1.61
2023-11-18T05:30:01.910Z,1.61
2023-11-18T05:31:02.023Z,1.72
2023-11-18T05:32:02.002Z,1.61
2023-11-18T05:33:02.001Z,1.61
2023-11-18T05:34:01.986Z,1.5
2023-11-18T05:36:02.031Z,1.33
2023-11-18T05:37:01.915Z,1.33
2023-11-18T05:38:02.027Z,1.61
2023-11-18T05:40:01.960Z,1.5
2023-11-18T05:42:01.930Z,1.61
2023-11-18T05:43:01.921Z,1.17
2023-11-18T05:44:01.934Z,1.33
2023-11-18T05:45:01.928Z,1.17
2023-11-18T05:46:01.942Z,1.17
2023-11-18T05:47:02.046Z,1.5
2023-11-18T05:48:01.963Z,1.06
2023-11-18T05:49:01.963Z,1.33
2023-11-18T05:50:02.113Z,1.33
2023-11-18T05:52:01.934Z,1.5
2023-11-18T05:53:01.962Z,1.06
2023-11-18T05:54:01.979Z,1.33
2023-11-18T05:56:01.994Z,1.17
2023-11-18T05:57:01.926Z,1.5
2023-11-18T05:58:01.930Z,1.06
2023-11-18T06:00:01.929Z,1.61
2023-11-18T06:01:01.961Z,1.33
2023-11-18T06:02:02.004Z,1.61
2023-11-18T06:03:02.135Z,1.33
2023-11-18T06:04:02.302Z,1.33
2023-11-18T06:06:01.939Z,1.06
2023-11-18T06:07:01.957Z,1.17
2023-11-18T06:08:01.979Z,1.5
2023-11-18T06:09:01.940Z,1.06
2023-11-18T06:10:01.971Z,1.06
2023-11-18T06:11:01.962Z,0.89
2023-11-18T06:12:01.944Z,1.5
2023-11-18T06:13:01.958Z,1.17
2023-11-18T06:15:01.965Z,1.33
2023-11-18T06:16:01.948Z,1.5
2023-11-18T06:17:02.056Z,1.5
2023-11-18T06:18:01.993Z,1.33
2023-11-18T06:19:01.966Z,1.33
2023-11-18T06:20:02.001Z,1.61
2023-11-18T06:22:01.968Z,1.5
2023-11-18T06:23:02.014Z,1.33
2023-11-18T06:24:01.983Z,1.5
2023-11-18T06:25:01.968Z,1.5
2023-11-18T06:26:01.986Z,1.33
2023-11-18T06:28:02.020Z,1.33
2023-11-18T06:29:01.968Z,1.33
2023-11-18T06:30:01.983Z,1.33
2023-11-18T06:31:01.996Z,1.5
2023-11-18T06:32:01.979Z,1.17
2023-11-18T06:33:02.005Z,1.33
2023-11-18T06:34:01.955Z,1.5
2023-11-18T06:35:01.970Z,1.33
2023-11-18T06:36:01.965Z,1.17
2023-11-18T06:37:01.968Z,1.33
2023-11-18T06:38:01.994Z,1.33
2023-11-18T06:39:01.992Z,1.33
2023-11-18T06:41:02.464Z,1.61
2023-11-18T06:42:02.087Z,1.33
2023-11-18T06:43:01.955Z,1.72
2023-11-18T06:44:02.307Z,1.5
2023-11-18T06:46:01.966Z,1.5
2023-11-18T06:47:02.030Z,1.5
2023-11-18T06:49:01.966Z,1.33
2023-11-18T06:50:02.087Z,1.33
2023-11-18T06:51:01.969Z,1.61
2023-11-18T06:52:01.977Z,1.5
2023-11-18T06:53:01.977Z,1.33
2023-11-18T06:54:01.981Z,1.61
2023-11-18T06:55:01.996Z,1.61
2023-11-18T06:56:01.981Z,1.5
2023-11-18T06:57:01.976Z,1.72
2023-11-18T06:58:01.980Z,2
2023-11-18T06:59:01.987Z,1.72
2023-11-18T07:00:02.080Z,1.61
2023-11-18T07:01:02.020Z,1.89
2023-11-18T07:02:02.227Z,1.5
2023-11-18T07:03:02.005Z,1.72
2023-11-18T07:04:02.018Z,2
2023-11-18T07:05:02.015Z,1.72
2023-11-18T07:06:02.133Z,1.72
2023-11-18T07:07:01.987Z,1.89
2023-11-18T07:08:01.992Z,1.89
2023-11-18T07:09:02.080Z,2
2023-11-18T07:11:02.029Z,1.72
2023-11-18T07:12:01.977Z,1.61
2023-11-18T07:13:01.990Z,1.89
2023-11-18T07:14:01.993Z,2
2023-11-18T07:15:02.010Z,1.89
2023-11-18T07:17:02.085Z,2.17
2023-11-18T07:18:02.016Z,1.89
2023-11-18T07:20:02.029Z,1.89
2023-11-18T07:21:01.992Z,1.89
2023-11-18T07:23:02.004Z,1.61
2023-11-18T07:24:02.002Z,2
2023-11-18T07:25:02.363Z,2
2023-11-18T07:26:02.032Z,2.28
2023-11-18T07:27:02.018Z,2.28
2023-11-18T07:28:01.987Z,2.44
2023-11-18T07:29:02.015Z,2.44
2023-11-18T07:30:02.030Z,2.61
2023-11-18T07:31:02.001Z,2.17
2023-11-18T07:32:02.003Z,2.28
2023-11-18T07:33:01.989Z,2.28
2023-11-18T07:34:02.023Z,2.28
2023-11-18T07:36:02.054Z,2.61
2023-11-18T07:37:01.981Z,1.89
2023-11-18T07:38:02.041Z,2.17
2023-11-18T07:39:02.003Z,2.61
2023-11-18T07:41:02.022Z,2
2023-11-18T07:42:02.003Z,2.17
2023-11-18T07:43:02.084Z,1.89
2023-11-18T07:45:02.008Z,2.17
2023-11-18T07:47:02.174Z,2.44
2023-11-18T07:48:02.033Z,2.28
2023-11-18T07:49:02.029Z,2.44
2023-11-18T07:50:02.010Z,2.17
2023-11-18T07:51:02.010Z,2
2023-11-18T07:52:02.006Z,2
2023-11-18T07:53:02.056Z,2.44
2023-11-18T07:55:02.008Z,2.17
2023-11-18T07:56:02.020Z,2.28
2023-11-18T07:57:02.022Z,2
2023-11-18T07:59:02.058Z,2.44
2023-11-18T08:00:01.993Z,2.44
2023-11-18T08:01:02.105Z,2.28
2023-11-18T08:03:02.086Z,2
2023-11-18T08:04:02.072Z,2.17
2023-11-18T08:06:02.025Z,2.17
2023-11-18T08:07:02.000Z,2
2023-11-18T08:08:02.028Z,2
2023-11-18T08:10:03.709Z,2.28
2023-11-18T08:11:02.110Z,2
2023-11-18T08:12:02.012Z,2.17
2023-11-18T08:13:02.017Z,2.17
2023-11-18T08:14:02.037Z,2.28
2023-11-18T08:15:02.097Z,2
2023-11-18T08:17:02.179Z,2.17
2023-11-18T08:18:02.089Z,2
2023-11-18T08:19:02.068Z,2.28
2023-11-18T08:20:02.093Z,1.89
2023-11-18T08:21:02.046Z,2.17
2023-11-18T08:22:02.011Z,2.44
2023-11-18T08:23:02.067Z,2.44
2023-11-18T08:25:02.040Z,2.89
2023-11-18T08:26:02.054Z,2.61
2023-11-18T08:27:02.007Z,2.44
2023-11-18T08:28:02.018Z,2.61
2023-11-18T08:30:02.045Z,2.89
2023-11-18T08:31:02.269Z,2.61
2023-11-18T08:32:02.090Z,2.44
2023-11-18T08:33:05.403Z,2.61
2023-11-18T08:35:02.127Z,2.44
2023-11-18T08:37:02.029Z,2.61
2023-11-18T08:38:02.088Z,2.44
2023-11-18T08:39:02.047Z,2.61
2023-11-18T08:41:02.063Z,2.28
2023-11-18T08:42:02.027Z,2.28
2023-11-18T08:43:02.052Z,2.44
2023-11-18T08:44:10.790Z,2.44
2023-11-18T08:45:04.414Z,2.44
2023-11-18T08:46:02.071Z,2.72
2023-11-18T08:47:02.052Z,2.72
2023-11-18T08:48:02.043Z,3
2023-11-18T08:49:02.023Z,2.89
2023-11-18T08:50:02.117Z,2.44
2023-11-18T08:51:02.026Z,2.89
2023-11-18T08:52:02.041Z,2.89
2023-11-18T08:53:02.042Z,2.44
2023-11-18T08:54:02.023Z,3
2023-11-18T08:56:02.102Z,2.89
2023-11-18T08:58:02.027Z,2.89
2023-11-18T08:59:02.089Z,3
2023-11-18T09:01:02.033Z,2.89
2023-11-18T09:02:02.089Z,3.17
2023-11-18T09:03:02.232Z,3.17
2023-11-18T09:05:02.049Z,2.44
2023-11-18T09:06:02.018Z,2.61
2023-11-18T09:07:02.038Z,2.89
2023-11-18T09:08:02.099Z,2.61
2023-11-18T09:09:02.027Z,3.17
2023-11-18T09:11:02.084Z,2.89
2023-11-18T09:12:02.016Z,3
2023-11-18T09:13:02.535Z,3.17
2023-11-18T09:14:02.548Z,2.61
2023-11-18T09:16:02.030Z,3
2023-11-18T09:18:02.067Z,3.17
2023-11-18T09:19:02.094Z,3
2023-11-18T09:21:02.061Z,2.72
2023-11-18T09:22:02.043Z,3.17
2023-11-18T09:24:02.042Z,3.17
2023-11-18T09:26:02.078Z,3.17
2023-11-18T09:28:02.032Z,3.56
2023-11-18T09:29:02.046Z,3.44
2023-11-18T09:30:02.104Z,3.44
2023-11-18T09:32:02.069Z,3.33
2023-11-18T09:33:02.141Z,3.33
2023-11-18T09:34:02.040Z,2.89
2023-11-18T09:35:02.090Z,3.33
2023-11-18T09:37:02.053Z,3.72
2023-11-18T09:38:02.052Z,3.44
2023-11-18T09:39:02.053Z,3.44
2023-11-18T09:41:02.151Z,3.44
2023-11-18T09:42:02.068Z,3.33
2023-11-18T09:43:02.032Z,3.33
2023-11-18T09:44:02.059Z,3.44
2023-11-18T09:46:02.050Z,3.44
2023-11-18T09:47:02.072Z,3.44
2023-11-18T09:48:02.063Z,3.44
2023-11-18T09:49:02.041Z,3.56
2023-11-18T09:50:02.061Z,3.33
2023-11-18T09:51:02.201Z,3.83
2023-11-18T09:52:02.040Z,3.72
2023-11-18T09:53:02.181Z,3.44
2023-11-18T09:55:02.060Z,3.83
2023-11-18T09:56:02.064Z,3.56
2023-11-18T09:57:02.099Z,3.83
2023-11-18T09:58:02.046Z,3.72
2023-11-18T09:59:02.131Z,3.72
2023-11-18T10:00:02.052Z,3.72
2023-11-18T10:01:02.113Z,3.33
2023-11-18T10:02:02.127Z,3.17
2023-11-18T10:04:02.117Z,3.83
2023-11-18T10:05:02.073Z,4.17
2023-11-18T10:06:02.050Z,3.83
2023-11-18T10:07:02.088Z,3.72
2023-11-18T10:08:02.083Z,3.72
2023-11-18T10:09:02.056Z,3.72
2023-11-18T10:11:02.107Z,4.17
2023-11-18T10:12:02.140Z,4
2023-11-18T10:13:02.044Z,4
2023-11-18T10:14:02.124Z,3.83
2023-11-18T10:15:02.096Z,4.17
2023-11-18T10:16:02.069Z,3.83
2023-11-18T10:17:02.068Z,4.17
2023-11-18T10:18:02.152Z,4.17
2023-11-18T10:20:02.212Z,4.17
2023-11-18T10:21:02.051Z,4.28
2023-11-18T10:22:04.303Z,4.28
2023-11-18T10:23:02.167Z,4.28
2023-11-18T10:25:02.069Z,3.83
2023-11-18T10:26:02.227Z,4.28
2023-11-18T10:27:02.055Z,4.44
2023-11-18T10:29:02.096Z,4.28
2023-11-18T10:30:02.094Z,4.44
2023-11-18T10:31:02.056Z,4.28
2023-11-18T10:32:02.103Z,4.28
2023-11-18T10:34:04.667Z,4.72
2023-11-18T10:35:02.072Z,4.56
2023-11-18T10:36:02.073Z,4.44
2023-11-18T10:37:02.078Z,4.28
2023-11-18T10:38:02.065Z,4.28
2023-11-18T10:39:02.095Z,4.17
2023-11-18T10:41:02.112Z,4.17
2023-11-18T10:42:02.065Z,4.44
2023-11-18T10:43:02.114Z,4.72
2023-11-18T10:45:02.075Z,4.89
2023-11-18T10:46:02.174Z,4.72
2023-11-18T10:47:02.102Z,4.72
2023-11-18T10:48:02.115Z,5.17
2023-11-18T10:50:02.125Z,4.56
2023-11-18T10:51:02.089Z,4.89
2023-11-18T10:53:02.108Z,4.89
2023-11-18T10:54:02.107Z,4.89
2023-11-18T10:55:02.117Z,4.89
2023-11-18T10:56:02.096Z,4.72
2023-11-18T10:57:02.094Z,5.17
2023-11-18T10:59:02.152Z,5.17
2023-11-18T11:00:02.111Z,5
2023-11-18T11:01:02.081Z,5.61
2023-11-18T11:02:02.178Z,5.61
2023-11-18T11:03:02.167Z,5.17
2023-11-18T11:04:04.024Z,5
2023-11-18T11:05:02.094Z,5.33
2023-11-18T11:06:02.118Z,5.17
2023-11-18T11:07:02.104Z,4.89
2023-11-18T11:09:02.095Z,4.89
2023-11-18T11:10:02.086Z,5.17
2023-11-18T11:11:02.120Z,5.22
2023-11-18T11:13:02.139Z,5
2023-11-18T11:14:02.130Z,4.94
2023-11-18T11:15:02.120Z,5
2023-11-18T11:16:02.096Z,5
2023-11-18T11:17:02.161Z,5
2023-11-18T11:18:02.144Z,5.17
2023-11-18T11:19:02.099Z,5.44
2023-11-18T11:20:02.136Z,5.72
2023-11-18T11:21:02.132Z,5.83
2023-11-18T11:23:02.283Z,5.83
2023-11-18T11:25:02.105Z,5.61
2023-11-18T11:26:02.138Z,6
2023-11-18T11:27:02.126Z,6.56
2023-11-18T11:28:02.202Z,6.28
2023-11-18T11:30:02.149Z,6.28
2023-11-18T11:31:02.121Z,6.39
2023-11-18T11:32:02.134Z,6.5
2023-11-18T11:33:02.109Z,6.28
2023-11-18T11:34:03.632Z,6
2023-11-18T11:35:02.146Z,6.28
2023-11-18T11:37:02.181Z,6.83
2023-11-18T11:39:02.130Z,6.22
2023-11-18T11:40:02.133Z,6.5
2023-11-18T11:41:02.194Z,6.5
2023-11-18T11:42:02.124Z,6.5
2023-11-18T11:43:02.157Z,5.94
2023-11-18T11:45:02.128Z,6.67
2023-11-18T11:46:02.136Z,6.72
2023-11-18T11:47:02.687Z,6.78
2023-11-18T11:48:02.375Z,6.5
2023-11-18T11:50:02.393Z,6.67
2023-11-18T11:51:02.132Z,6.78
2023-11-18T11:52:02.147Z,6.5
2023-11-18T11:54:02.119Z,6.94
2023-11-18T11:55:02.160Z,7.11
2023-11-18T11:57:02.380Z,6.94
2023-11-18T11:58:02.130Z,6.94
2023-11-18T11:59:02.193Z,6.39
2023-11-18T12:01:02.160Z,6.67
2023-11-18T12:03:02.178Z,6.22
2023-11-18T12:04:02.228Z,6.5
2023-11-18T12:05:02.237Z,6.22
2023-11-18T12:06:02.148Z,6.22
2023-11-18T12:08:02.183Z,6.22
2023-11-18T12:09:02.140Z,6.39
2023-11-18T12:10:02.160Z,6.67
2023-11-18T12:12:02.165Z,6.78
2023-11-18T12:14:02.180Z,6.94
2023-11-18T12:15:02.178Z,7.39
2023-11-18T12:17:02.469Z,7.22
2023-11-18T12:18:02.151Z,7.5
2023-11-18T12:19:02.156Z,7.11
2023-11-18T12:20:02.200Z,7.39
2023-11-18T12:21:02.141Z,7.39
2023-11-18T12:22:02.153Z,7.11
2023-11-18T12:23:02.158Z,6.94
2023-11-18T12:24:02.144Z,6.94
2023-11-18T12:25:02.154Z,6.94
2023-11-18T12:26:02.195Z,6.67
2023-11-18T12:27:02.141Z,6.67
2023-11-18T12:28:02.156Z,5.67
2023-11-18T12:30:02.148Z,5.94
2023-11-18T12:31:02.176Z,5.67
2023-11-18T12:33:02.288Z,6.39
2023-11-18T12:35:02.178Z,6.39
2023-11-18T12:36:02.153Z,6.06
2023-11-18T12:37:02.157Z,6.06
2023-11-18T12:38:02.152Z,5.94
2023-11-18T12:39:02.172Z,5.78
2023-11-18T12:40:02.149Z,5.94
2023-11-18T12:41:02.165Z,5.78
2023-11-18T12:42:02.155Z,5.56
2023-11-18T12:43:02.150Z,5.56
2023-11-18T12:44:02.181Z,6.06
2023-11-18T12:45:02.163Z,5.94
2023-11-18T12:46:02.186Z,5.78
2023-11-18T12:47:02.248Z,6.06
2023-11-18T12:48:02.218Z,6.22
2023-11-18T12:49:02.166Z,6.06
2023-11-18T12:50:02.201Z,6.22
2023-11-18T12:51:02.197Z,6.39
2023-11-18T12:52:02.160Z,6.39
2023-11-18T12:53:02.177Z,6.39
2023-11-18T12:54:02.160Z,6.67
2023-11-18T12:55:02.157Z,6.06
2023-11-18T12:56:02.232Z,6.67
2023-11-18T12:57:02.168Z,5.94
2023-11-18T12:58:02.173Z,5.94
2023-11-18T12:59:02.166Z,5.78
2023-11-18T13:00:02.257Z,5.67
2023-11-18T13:01:02.318Z,5.94
2023-11-18T13:03:02.403Z,5.94
2023-11-18T13:04:02.266Z,5.67
2023-11-18T13:05:02.185Z,6.5
2023-11-18T13:06:02.163Z,6.39
2023-11-18T13:07:02.183Z,6.06
2023-11-18T13:08:02.207Z,6.22
2023-11-18T13:09:02.157Z,5.67
2023-11-18T13:10:02.180Z,5.56
2023-11-18T13:11:02.255Z,5.67
2023-11-18T13:12:04.015Z,5.67
2023-11-18T13:13:02.169Z,5.39
2023-11-18T13:15:02.166Z,5.67
2023-11-18T13:16:02.201Z,5.78
2023-11-18T13:17:02.271Z,5.78
2023-11-18T13:19:02.203Z,5.94
2023-11-18T13:20:02.318Z,5.94
2023-11-18T13:21:02.161Z,5.78
2023-11-18T13:22:02.209Z,5.39
2023-11-18T13:24:02.175Z,5.78
2023-11-18T13:25:02.160Z,5.39
2023-11-18T13:26:02.209Z,5.56
2023-11-18T13:27:02.175Z,5.56
2023-11-18T13:29:02.186Z,5.67
2023-11-18T13:30:02.176Z,5.67
2023-11-18T13:31:02.178Z,5.78
2023-11-18T13:32:02.194Z,5.56
2023-11-18T13:33:02.189Z,5.39
2023-11-18T13:34:02.229Z,5.56
2023-11-18T13:35:02.204Z,5.56
2023-11-18T13:37:02.192Z,5.22
2023-11-18T13:38:02.183Z,5.56
2023-11-18T13:39:02.179Z,5.11
2023-11-18T13:41:02.188Z,5.22
2023-11-18T13:43:02.181Z,5.67
2023-11-18T13:44:02.226Z,5.78
2023-11-18T13:45:02.171Z,5.78
2023-11-18T13:46:02.215Z,5.67
2023-11-18T13:47:02.203Z,5.67
2023-11-18T13:49:02.224Z,6.22
2023-11-18T13:51:02.234Z,5.67
2023-11-18T13:53:02.297Z,5.78
2023-11-18T13:54:02.184Z,5.67
2023-11-18T13:56:02.224Z,6.22
2023-11-18T13:57:02.173Z,5.56
2023-11-18T13:58:02.196Z,5.39
2023-11-18T13:59:02.198Z,5.39
2023-11-18T14:00:02.173Z,5.22
2023-11-18T14:01:02.194Z,5.56
2023-11-18T14:02:02.214Z,5.39
2023-11-18T14:03:02.308Z,5.56
2023-11-18T14:05:02.234Z,5.22
2023-11-18T14:06:02.178Z,5.11
2023-11-18T14:07:02.221Z,5.11
2023-11-18T14:09:02.266Z,4.67
2023-11-18T14:11:03.198Z,4.83
2023-11-18T14:12:02.202Z,4.39
2023-11-18T14:14:02.200Z,4.83
2023-11-18T14:15:02.198Z,4.67
2023-11-18T14:16:02.194Z,4.67
2023-11-18T14:17:02.257Z,4.5
2023-11-18T14:18:02.238Z,4.94
2023-11-18T14:19:02.208Z,4.94
2023-11-18T14:20:02.337Z,4.39
2023-11-18T14:21:02.218Z,4.39
2023-11-18T14:22:02.219Z,4.94
2023-11-18T14:23:02.284Z,4.39
2023-11-18T14:25:02.205Z,4.67
2023-11-18T14:26:02.235Z,4.11
2023-11-18T14:27:02.222Z,4.39
2023-11-18T14:29:02.201Z,4.22
2023-11-18T14:30:02.193Z,4.22
2023-11-18T14:31:02.239Z,4.39
2023-11-18T14:32:02.237Z,4.22
2023-11-18T14:34:02.253Z,4.22
2023-11-18T14:35:02.207Z,4.11
2023-11-18T14:36:02.210Z,4.22
2023-11-18T14:38:02.352Z,4.22
2023-11-18T14:39:02.225Z,4.22
2023-11-18T14:40:02.269Z,4.22
2023-11-18T14:41:02.204Z,3.67
2023-11-18T14:42:02.197Z,4.11
2023-11-18T14:44:02.328Z,3.78
2023-11-18T14:46:02.239Z,4.11
2023-11-18T14:47:02.271Z,3.94
2023-11-18T14:48:02.236Z,3.94
2023-11-18T14:49:02.227Z,3.94
2023-11-18T14:51:02.234Z,3.67
2023-11-18T14:52:02.210Z,3.67
2023-11-18T14:53:02.397Z,3.56
2023-11-18T14:54:02.228Z,3.39
2023-11-18T14:55:02.240Z,3.28
2023-11-18T14:57:02.216Z,3.28
2023-11-18T14:58:02.203Z,3.56
2023-11-18T14:59:02.222Z,3.39
2023-11-18T15:00:02.251Z,3.28
2023-11-18T15:01:02.200Z,3.28
2023-11-18T15:02:02.343Z,3.11
2023-11-18T15:04:02.256Z,3.11
2023-11-18T15:05:02.293Z,3
2023-11-18T15:07:02.254Z,2.83
2023-11-18T15:09:02.216Z,2.72
2023-11-18T15:10:02.203Z,2.83
2023-11-18T15:11:02.334Z,2.56
2023-11-18T15:13:02.636Z,2.83
2023-11-18T15:14:02.225Z,3
2023-11-18T15:15:02.208Z,2.83
2023-11-18T15:16:02.268Z,2.83
2023-11-18T15:17:02.288Z,2.28
2023-11-18T15:18:02.338Z,2.39
2023-11-18T15:19:02.233Z,2.72
2023-11-18T15:20:02.223Z,2.39
2023-11-18T15:21:02.219Z,2.39
2023-11-18T15:22:02.236Z,2.39
2023-11-18T15:23:02.238Z,2.56
2023-11-18T15:24:02.226Z,2.39
2023-11-18T15:25:02.241Z,2.39
2023-11-18T15:27:02.267Z,2.56
2023-11-18T15:29:02.288Z,2.28
2023-11-18T15:30:02.216Z,2
2023-11-18T15:31:02.240Z,1.83
2023-11-18T15:33:02.231Z,1.72
2023-11-18T15:34:02.226Z,2
2023-11-18T15:35:02.236Z,2
2023-11-18T15:36:02.250Z,1.56
2023-11-18T15:37:02.252Z,1.72
2023-11-18T15:38:02.228Z,1.56
2023-11-18T15:39:02.226Z,1.83
2023-11-18T15:40:02.226Z,1.83
2023-11-18T15:42:02.253Z,1.72
2023-11-18T15:43:02.284Z,1.83
2023-11-18T15:44:02.289Z,2
2023-11-18T15:45:02.236Z,1.83
2023-11-18T15:47:02.245Z,1.83
2023-11-18T15:49:02.233Z,1.56
2023-11-18T15:50:02.257Z,1.56
2023-11-18T15:51:02.231Z,1.56
2023-11-18T15:52:02.249Z,1.56
2023-11-18T15:54:02.227Z,1
2023-11-18T15:55:02.237Z,1.11
2023-11-18T15:56:02.325Z,1.28
2023-11-18T15:57:02.225Z,1
2023-11-18T15:58:02.226Z,1.11
2023-11-18T15:59:02.292Z,0.72
2023-11-18T16:00:02.228Z,1.11
2023-11-18T16:01:02.248Z,1.28
2023-11-18T16:02:02.285Z,1.28
2023-11-18T16:03:03.080Z,1.28
2023-11-18T16:04:02.275Z,1
2023-11-18T16:05:02.256Z,1.44
2023-11-18T16:06:02.298Z,0.56
2023-11-18T16:07:02.249Z,0.83
2023-11-18T16:08:02.294Z,1
2023-11-18T16:09:02.225Z,0.83
2023-11-18T16:10:02.242Z,0.83
2023-11-18T16:11:02.270Z,1
2023-11-18T16:13:02.281Z,0.72
2023-11-18T16:14:02.292Z,0.44
2023-11-18T16:15:02.498Z,1
2023-11-18T16:17:02.377Z,0.72
2023-11-18T16:18:02.596Z,0.44
2023-11-18T16:19:02.229Z,0.72